SWR3MA LSZH-LFKJ
Flight info
| Callsign | SWR3MA |
|---|---|
| Flight time | 1h 7m |
| Altitude | 36000 |
| Route | VEBIT T53 GERSA DCT SOSON DCT ODINA DCT EVANO/N0454F370 DCT KEMMI DCT IXITO DCT UNITA DCT ERTEV/N0423F230 DCT TORTU |
| Aircraft | A319/M-SDE3FGHIRWY/LB1 |
Departure
| Time | 2026-05-08 11:12 |
|---|---|
| Airport | Zürich Airport (LSZH) |
Arrival
| Time | 2026-05-08 12:20 |
|---|---|
| Airport | Ajaccio Napoléon Bonaparte airport (LFKJ) |
| Time | Latitude | Longitude | Altitude | Speed | Heading |
|---|---|---|---|---|---|
| 2026-05-08 10:39 | 47.46073 | 8.55358 | 1397 ft | 0 kts | 6° |
| 2026-05-08 11:03 | 47.46070 | 8.55358 | 1397 ft | 3 kts | 6° |
| 2026-05-08 11:03 | 47.46044 | 8.55354 | 1403 ft | 4 kts | 5° |
| 2026-05-08 11:03 | 47.46017 | 8.55351 | 1399 ft | 4 kts | 1° |
| 2026-05-08 11:03 | 47.45991 | 8.55353 | 1407 ft | 4 kts | 342° |
| 2026-05-08 11:04 | 47.45974 | 8.55369 | 1406 ft | 2 kts | 277° |
| 2026-05-08 11:04 | 47.45974 | 8.55371 | 1398 ft | 1 kts | 276° |
| 2026-05-08 11:06 | 47.45976 | 8.55348 | 1397 ft | 3 kts | 275° |
| 2026-05-08 11:07 | 47.45978 | 8.55306 | 1397 ft | 5 kts | 275° |
| 2026-05-08 11:07 | 47.45982 | 8.55243 | 1396 ft | 7 kts | 275° |
| 2026-05-08 11:07 | 47.45988 | 8.55163 | 1399 ft | 9 kts | 276° |
| 2026-05-08 11:07 | 47.45995 | 8.55066 | 1397 ft | 11 kts | 277° |
| 2026-05-08 11:08 | 47.46009 | 8.54953 | 1399 ft | 12 kts | 299° |
| 2026-05-08 11:08 | 47.46085 | 8.54895 | 1389 ft | 13 kts | 334° |
| 2026-05-08 11:08 | 47.46168 | 8.54835 | 1385 ft | 14 kts | 334° |
| 2026-05-08 11:08 | 47.46256 | 8.54778 | 1388 ft | 14 kts | 335° |
| 2026-05-08 11:09 | 47.46354 | 8.54711 | 1384 ft | 16 kts | 335° |
| 2026-05-08 11:09 | 47.46453 | 8.54641 | 1386 ft | 15 kts | 334° |
| 2026-05-08 11:09 | 47.46542 | 8.54580 | 1385 ft | 14 kts | 337° |
| 2026-05-08 11:09 | 47.46629 | 8.54521 | 1384 ft | 14 kts | 335° |
| 2026-05-08 11:10 | 47.46725 | 8.54455 | 1384 ft | 16 kts | 336° |
| 2026-05-08 11:10 | 47.46837 | 8.54394 | 1381 ft | 18 kts | 339° |
| 2026-05-08 11:10 | 47.46937 | 8.54309 | 1384 ft | 14 kts | 322° |
| 2026-05-08 11:10 | 47.47007 | 8.54219 | 1383 ft | 13 kts | 302° |
| 2026-05-08 11:11 | 47.47023 | 8.54095 | 1384 ft | 12 kts | 252° |
| 2026-05-08 11:11 | 47.46969 | 8.54012 | 1384 ft | 12 kts | 192° |
| 2026-05-08 11:11 | 47.46863 | 8.54082 | 1384 ft | 28 kts | 155° |
| 2026-05-08 11:11 | 47.46568 | 8.54288 | 1381 ft | 76 kts | 155° |
| 2026-05-08 11:12 | 47.45890 | 8.54753 | 1391 ft | 136 kts | 155° |
| 2026-05-08 11:12 | 47.44897 | 8.55436 | 1590 ft | 164 kts | 149° |
| 2026-05-08 11:12 | 47.43886 | 8.56140 | 2349 ft | 159 kts | 153° |
| 2026-05-08 11:12 | 47.42863 | 8.56812 | 2974 ft | 162 kts | 154° |
| 2026-05-08 11:13 | 47.41884 | 8.57624 | 3574 ft | 165 kts | 131° |
| 2026-05-08 11:13 | 47.41324 | 8.59196 | 3889 ft | 185 kts | 100° |
| 2026-05-08 11:13 | 47.41423 | 8.61155 | 4230 ft | 203 kts | 68° |
| 2026-05-08 11:13 | 47.42323 | 8.62859 | 4515 ft | 226 kts | 32° |
| 2026-05-08 11:14 | 47.43858 | 8.63424 | 5089 ft | 235 kts | 352° |
| 2026-05-08 11:14 | 47.45322 | 8.62431 | 5868 ft | 233 kts | 313° |
| 2026-05-08 11:14 | 47.46046 | 8.60376 | 6742 ft | 226 kts | 275° |
| 2026-05-08 11:14 | 47.45955 | 8.58084 | 7590 ft | 224 kts | 262° |
| 2026-05-08 11:15 | 47.45797 | 8.55768 | 8354 ft | 229 kts | 263° |
| 2026-05-08 11:15 | 47.45664 | 8.53429 | 9066 ft | 238 kts | 264° |
| 2026-05-08 11:15 | 47.45527 | 8.50867 | 9462 ft | 262 kts | 264° |
| 2026-05-08 11:15 | 47.45153 | 8.48136 | 10004 ft | 277 kts | 243° |
| 2026-05-08 11:16 | 47.44137 | 8.45625 | 10486 ft | 296 kts | 236° |
| 2026-05-08 11:16 | 47.42941 | 8.42996 | 10737 ft | 320 kts | 234° |
| 2026-05-08 11:16 | 47.41572 | 8.40256 | 10989 ft | 341 kts | 226° |
| 2026-05-08 11:16 | 47.39633 | 8.38176 | 11555 ft | 351 kts | 205° |
| 2026-05-08 11:17 | 47.37257 | 8.37306 | 12256 ft | 357 kts | 183° |
| 2026-05-08 11:17 | 47.34787 | 8.37837 | 12972 ft | 365 kts | 161° |
| 2026-05-08 11:17 | 47.32549 | 8.39580 | 13687 ft | 370 kts | 151° |
| 2026-05-08 11:17 | 47.30274 | 8.41418 | 14354 ft | 374 kts | 154° |
| 2026-05-08 11:18 | 47.27940 | 8.43136 | 14993 ft | 377 kts | 156° |
| 2026-05-08 11:18 | 47.25562 | 8.44811 | 15635 ft | 381 kts | 156° |
| 2026-05-08 11:18 | 47.23154 | 8.46498 | 16267 ft | 385 kts | 156° |
| 2026-05-08 11:18 | 47.20733 | 8.48221 | 16894 ft | 388 kts | 156° |
| 2026-05-08 11:19 | 47.18291 | 8.49964 | 17511 ft | 392 kts | 158° |
| 2026-05-08 11:19 | 47.16599 | 8.50897 | 17908 ft | 393 kts | 165° |
| 2026-05-08 11:19 | 47.13914 | 8.51755 | 18498 ft | 394 kts | 175° |
| 2026-05-08 11:19 | 47.11173 | 8.52163 | 19046 ft | 397 kts | 176° |
| 2026-05-08 11:20 | 47.08410 | 8.52563 | 19598 ft | 400 kts | 176° |
| 2026-05-08 11:20 | 47.05624 | 8.52964 | 20134 ft | 403 kts | 176° |
| 2026-05-08 11:20 | 47.02859 | 8.53364 | 20619 ft | 406 kts | 176° |
| 2026-05-08 11:20 | 47.00039 | 8.53772 | 21118 ft | 408 kts | 176° |
| 2026-05-08 11:21 | 46.97196 | 8.54186 | 21623 ft | 411 kts | 176° |
| 2026-05-08 11:21 | 46.94340 | 8.54602 | 22118 ft | 414 kts | 177° |
| 2026-05-08 11:21 | 46.91467 | 8.55017 | 22599 ft | 416 kts | 177° |
| 2026-05-08 11:21 | 46.88570 | 8.55435 | 23059 ft | 420 kts | 177° |
| 2026-05-08 11:22 | 46.85652 | 8.55855 | 23539 ft | 422 kts | 177° |
| 2026-05-08 11:22 | 46.82723 | 8.56274 | 23898 ft | 423 kts | 177° |
| 2026-05-08 11:22 | 46.79783 | 8.56692 | 24291 ft | 425 kts | 177° |
| 2026-05-08 11:22 | 46.76830 | 8.57111 | 24684 ft | 427 kts | 177° |
| 2026-05-08 11:23 | 46.73872 | 8.57531 | 25120 ft | 427 kts | 177° |
| 2026-05-08 11:23 | 46.70903 | 8.57956 | 25537 ft | 429 kts | 178° |
| 2026-05-08 11:23 | 46.67930 | 8.58382 | 25898 ft | 429 kts | 178° |
| 2026-05-08 11:23 | 46.64956 | 8.58807 | 26275 ft | 429 kts | 178° |
| 2026-05-08 11:24 | 46.61976 | 8.59230 | 26674 ft | 430 kts | 178° |
| 2026-05-08 11:24 | 46.59028 | 8.59648 | 27063 ft | 431 kts | 178° |
| 2026-05-08 11:24 | 46.56035 | 8.60072 | 27451 ft | 433 kts | 178° |
| 2026-05-08 11:24 | 46.53030 | 8.60497 | 27834 ft | 434 kts | 178° |
| 2026-05-08 11:25 | 46.50021 | 8.60922 | 28205 ft | 435 kts | 178° |
| 2026-05-08 11:25 | 46.47004 | 8.61345 | 28537 ft | 436 kts | 178° |
| 2026-05-08 11:25 | 46.43978 | 8.61772 | 28854 ft | 437 kts | 178° |
| 2026-05-08 11:25 | 46.40950 | 8.62203 | 29285 ft | 436 kts | 178° |
| 2026-05-08 11:26 | 46.37941 | 8.62633 | 29812 ft | 432 kts | 178° |
| 2026-05-08 11:26 | 46.34956 | 8.63060 | 30256 ft | 430 kts | 179° |
| 2026-05-08 11:26 | 46.31972 | 8.63484 | 30656 ft | 429 kts | 179° |
| 2026-05-08 11:26 | 46.29003 | 8.63900 | 31061 ft | 428 kts | 179° |
| 2026-05-08 11:27 | 46.26088 | 8.64309 | 31333 ft | 426 kts | 179° |
| 2026-05-08 11:27 | 46.23127 | 8.64726 | 31614 ft | 427 kts | 178° |
| 2026-05-08 11:27 | 46.20167 | 8.65140 | 31966 ft | 426 kts | 178° |
| 2026-05-08 11:27 | 46.17215 | 8.65552 | 32346 ft | 426 kts | 178° |
| 2026-05-08 11:28 | 46.14263 | 8.65963 | 32728 ft | 425 kts | 178° |
| 2026-05-08 11:28 | 46.11318 | 8.66374 | 33092 ft | 425 kts | 178° |
| 2026-05-08 11:28 | 46.08372 | 8.66778 | 33445 ft | 424 kts | 178° |
| 2026-05-08 11:28 | 46.05430 | 8.67160 | 33802 ft | 424 kts | 179° |
| 2026-05-08 11:29 | 46.02527 | 8.67522 | 34239 ft | 423 kts | 179° |
| 2026-05-08 11:29 | 45.99583 | 8.67886 | 34523 ft | 424 kts | 179° |
| 2026-05-08 11:29 | 45.96636 | 8.68248 | 34772 ft | 425 kts | 179° |
| 2026-05-08 11:29 | 45.93680 | 8.68610 | 35027 ft | 426 kts | 179° |
| 2026-05-08 11:30 | 45.90724 | 8.68977 | 35258 ft | 428 kts | 179° |
| 2026-05-08 11:30 | 45.87753 | 8.69349 | 35502 ft | 429 kts | 179° |
| 2026-05-08 11:30 | 45.84813 | 8.69722 | 35740 ft | 429 kts | 179° |
| 2026-05-08 11:30 | 45.81846 | 8.70101 | 36011 ft | 429 kts | 179° |
| 2026-05-08 11:31 | 45.78861 | 8.70480 | 36234 ft | 429 kts | 179° |
| 2026-05-08 11:31 | 45.75877 | 8.70855 | 36429 ft | 431 kts | 179° |
| 2026-05-08 11:31 | 45.72912 | 8.71226 | 36618 ft | 432 kts | 179° |
| 2026-05-08 11:31 | 45.69912 | 8.71600 | 36808 ft | 433 kts | 179° |
| 2026-05-08 11:32 | 45.66903 | 8.71972 | 37007 ft | 434 kts | 179° |
| 2026-05-08 11:32 | 45.60845 | 8.72716 | 37084 ft | 437 kts | 179° |
| 2026-05-08 11:33 | 45.54774 | 8.73472 | 37082 ft | 438 kts | 179° |
| 2026-05-08 11:33 | 45.48726 | 8.74225 | 37084 ft | 438 kts | 179° |
| 2026-05-08 11:34 | 45.42654 | 8.74987 | 37046 ft | 438 kts | 179° |
| 2026-05-08 11:34 | 45.36567 | 8.75741 | 37056 ft | 439 kts | 179° |
| 2026-05-08 11:35 | 45.30471 | 8.76450 | 37056 ft | 439 kts | 180° |
| 2026-05-08 11:35 | 45.24378 | 8.77006 | 37063 ft | 439 kts | 180° |
| 2026-05-08 11:36 | 45.18270 | 8.77517 | 37097 ft | 439 kts | 180° |
| 2026-05-08 11:36 | 45.12159 | 8.78061 | 37101 ft | 440 kts | 180° |
| 2026-05-08 11:37 | 45.06077 | 8.78621 | 37100 ft | 441 kts | 180° |
| 2026-05-08 11:37 | 44.99952 | 8.79184 | 37061 ft | 441 kts | 180° |
| 2026-05-08 11:38 | 44.93807 | 8.79746 | 37062 ft | 442 kts | 180° |
| 2026-05-08 11:38 | 44.87653 | 8.80302 | 37069 ft | 442 kts | 180° |
| 2026-05-08 11:39 | 44.81537 | 8.80853 | 37070 ft | 443 kts | 180° |
| 2026-05-08 11:39 | 44.75384 | 8.81331 | 37075 ft | 442 kts | 182° |
| 2026-05-08 11:40 | 44.69247 | 8.81306 | 37057 ft | 440 kts | 185° |
| 2026-05-08 11:40 | 44.63111 | 8.81070 | 37032 ft | 440 kts | 186° |
| 2026-05-08 11:41 | 44.57010 | 8.80904 | 37014 ft | 441 kts | 185° |
| 2026-05-08 11:41 | 44.50857 | 8.80827 | 37021 ft | 442 kts | 185° |
| 2026-05-08 11:42 | 44.44700 | 8.80774 | 37019 ft | 442 kts | 185° |
| 2026-05-08 11:42 | 44.38539 | 8.80703 | 37024 ft | 442 kts | 185° |
| 2026-05-08 11:43 | 44.32382 | 8.80623 | 37026 ft | 442 kts | 185° |
| 2026-05-08 11:43 | 44.26225 | 8.80531 | 37012 ft | 442 kts | 185° |
| 2026-05-08 11:44 | 44.20065 | 8.80440 | 37011 ft | 443 kts | 185° |
| 2026-05-08 11:44 | 44.13957 | 8.81834 | 37015 ft | 456 kts | 165° |
| 2026-05-08 11:44 | 44.11050 | 8.83694 | 37006 ft | 463 kts | 154° |
| 2026-05-08 11:45 | 44.08393 | 8.86287 | 37006 ft | 469 kts | 144° |
| 2026-05-08 11:45 | 44.03390 | 8.92136 | 36991 ft | 471 kts | 144° |
| 2026-05-08 11:46 | 43.98168 | 8.97612 | 36999 ft | 465 kts | 156° |
| 2026-05-08 11:46 | 43.92228 | 9.00547 | 37003 ft | 452 kts | 176° |
| 2026-05-08 11:47 | 43.86052 | 9.00662 | 36980 ft | 439 kts | 194° |
| 2026-05-08 11:47 | 43.80008 | 8.99331 | 36995 ft | 440 kts | 194° |
| 2026-05-08 11:48 | 43.73946 | 8.98021 | 37005 ft | 441 kts | 194° |
| 2026-05-08 11:48 | 43.67867 | 8.96707 | 37012 ft | 442 kts | 194° |
| 2026-05-08 11:49 | 43.61714 | 8.95822 | 36997 ft | 450 kts | 186° |
| 2026-05-08 11:49 | 43.55484 | 8.95834 | 37010 ft | 451 kts | 186° |
| 2026-05-08 11:50 | 43.49195 | 8.95834 | 37017 ft | 451 kts | 186° |
| 2026-05-08 11:50 | 43.42935 | 8.95616 | 37001 ft | 444 kts | 195° |
| 2026-05-08 11:51 | 43.36803 | 8.94421 | 36637 ft | 446 kts | 194° |
| 2026-05-08 11:51 | 43.33728 | 8.93706 | 35638 ft | 449 kts | 200° |
| 2026-05-08 11:51 | 43.30704 | 8.92634 | 34757 ft | 449 kts | 204° |
| 2026-05-08 11:51 | 43.27774 | 8.91338 | 33915 ft | 448 kts | 208° |
| 2026-05-08 11:52 | 43.24845 | 8.89905 | 32798 ft | 445 kts | 208° |
| 2026-05-08 11:52 | 43.21930 | 8.88449 | 31332 ft | 448 kts | 207° |
| 2026-05-08 11:52 | 43.18974 | 8.87007 | 29775 ft | 453 kts | 205° |
| 2026-05-08 11:52 | 43.15973 | 8.85602 | 27952 ft | 458 kts | 203° |
| 2026-05-08 11:53 | 43.12930 | 8.84236 | 26112 ft | 462 kts | 201° |
| 2026-05-08 11:53 | 43.09855 | 8.82894 | 24478 ft | 463 kts | 200° |
| 2026-05-08 11:53 | 43.06803 | 8.81580 | 22978 ft | 458 kts | 199° |
| 2026-05-08 11:53 | 43.03802 | 8.80287 | 22205 ft | 439 kts | 199° |
| 2026-05-08 11:54 | 43.00988 | 8.79067 | 22020 ft | 409 kts | 199° |
| 2026-05-08 11:54 | 42.98368 | 8.77922 | 21887 ft | 383 kts | 199° |
| 2026-05-08 11:54 | 42.95898 | 8.76835 | 21760 ft | 361 kts | 199° |
| 2026-05-08 11:54 | 42.93581 | 8.75815 | 21570 ft | 341 kts | 200° |
| 2026-05-08 11:55 | 42.91358 | 8.74833 | 21071 ft | 332 kts | 200° |
| 2026-05-08 11:55 | 42.89180 | 8.73873 | 20453 ft | 327 kts | 200° |
| 2026-05-08 11:55 | 42.87051 | 8.72933 | 19838 ft | 324 kts | 200° |
| 2026-05-08 11:55 | 42.84913 | 8.71992 | 19231 ft | 322 kts | 199° |
| 2026-05-08 11:56 | 42.82763 | 8.71048 | 18623 ft | 319 kts | 199° |
| 2026-05-08 11:56 | 42.80680 | 8.70132 | 17998 ft | 317 kts | 199° |
| 2026-05-08 11:56 | 42.78582 | 8.69210 | 17361 ft | 315 kts | 199° |
| 2026-05-08 11:56 | 42.76499 | 8.68298 | 16746 ft | 312 kts | 199° |
| 2026-05-08 11:57 | 42.74438 | 8.67400 | 16287 ft | 309 kts | 199° |
| 2026-05-08 11:57 | 42.72388 | 8.66507 | 16038 ft | 310 kts | 198° |
| 2026-05-08 11:57 | 42.70356 | 8.65618 | 15790 ft | 309 kts | 198° |
| 2026-05-08 11:57 | 42.68304 | 8.64720 | 15539 ft | 309 kts | 198° |
| 2026-05-08 11:58 | 42.66255 | 8.63825 | 15296 ft | 308 kts | 198° |
| 2026-05-08 11:58 | 42.64215 | 8.62934 | 15050 ft | 307 kts | 198° |
| 2026-05-08 11:58 | 42.62186 | 8.62049 | 14801 ft | 305 kts | 198° |
| 2026-05-08 11:59 | 42.58149 | 8.60305 | 14340 ft | 304 kts | 197° |
| 2026-05-08 11:59 | 42.56141 | 8.59441 | 14092 ft | 302 kts | 197° |
| 2026-05-08 11:59 | 42.54132 | 8.58571 | 13854 ft | 301 kts | 197° |
| 2026-05-08 11:59 | 42.52163 | 8.57715 | 13597 ft | 300 kts | 197° |
| 2026-05-08 12:00 | 42.50175 | 8.56849 | 13327 ft | 299 kts | 197° |
| 2026-05-08 12:00 | 42.48198 | 8.55987 | 13058 ft | 298 kts | 197° |
| 2026-05-08 12:00 | 42.46221 | 8.55123 | 12800 ft | 297 kts | 198° |
| 2026-05-08 12:00 | 42.44251 | 8.54266 | 12540 ft | 298 kts | 197° |
| 2026-05-08 12:01 | 42.42282 | 8.53414 | 12285 ft | 297 kts | 197° |
| 2026-05-08 12:01 | 42.40312 | 8.52565 | 12028 ft | 296 kts | 197° |
| 2026-05-08 12:01 | 42.38478 | 8.51776 | 11791 ft | 296 kts | 198° |
| 2026-05-08 12:01 | 42.36516 | 8.50932 | 11539 ft | 296 kts | 198° |
| 2026-05-08 12:02 | 42.34557 | 8.50090 | 11290 ft | 296 kts | 198° |
| 2026-05-08 12:02 | 42.32593 | 8.49244 | 11042 ft | 295 kts | 198° |
| 2026-05-08 12:02 | 42.30640 | 8.48401 | 10796 ft | 295 kts | 198° |
| 2026-05-08 12:02 | 42.28683 | 8.47557 | 10553 ft | 294 kts | 198° |
| 2026-05-08 12:03 | 42.26750 | 8.46723 | 10305 ft | 289 kts | 197° |
| 2026-05-08 12:03 | 42.24849 | 8.45907 | 10066 ft | 284 kts | 197° |
| 2026-05-08 12:03 | 42.23010 | 8.45146 | 9897 ft | 276 kts | 194° |
| 2026-05-08 12:03 | 42.21158 | 8.44631 | 9765 ft | 267 kts | 188° |
| 2026-05-08 12:04 | 42.19338 | 8.44396 | 9634 ft | 258 kts | 182° |
| 2026-05-08 12:04 | 42.17575 | 8.44271 | 9498 ft | 249 kts | 183° |
| 2026-05-08 12:04 | 42.15873 | 8.44138 | 9365 ft | 240 kts | 183° |
| 2026-05-08 12:04 | 42.14227 | 8.44004 | 9233 ft | 235 kts | 183° |
| 2026-05-08 12:05 | 42.12607 | 8.43876 | 9099 ft | 233 kts | 183° |
| 2026-05-08 12:05 | 42.11535 | 8.43796 | 9013 ft | 233 kts | 182° |
| 2026-05-08 12:05 | 42.09919 | 8.43676 | 8885 ft | 232 kts | 182° |
| 2026-05-08 12:05 | 42.08312 | 8.43555 | 8762 ft | 229 kts | 181° |
| 2026-05-08 12:06 | 42.06731 | 8.43435 | 8631 ft | 226 kts | 181° |
| 2026-05-08 12:06 | 42.05158 | 8.43314 | 8500 ft | 226 kts | 181° |
| 2026-05-08 12:06 | 42.03585 | 8.43195 | 8372 ft | 226 kts | 181° |
| 2026-05-08 12:06 | 42.02017 | 8.43077 | 8245 ft | 225 kts | 182° |
| 2026-05-08 12:07 | 42.00455 | 8.42959 | 8118 ft | 225 kts | 182° |
| 2026-05-08 12:07 | 41.98889 | 8.42841 | 7991 ft | 225 kts | 182° |
| 2026-05-08 12:07 | 41.97324 | 8.42721 | 7865 ft | 225 kts | 182° |
| 2026-05-08 12:07 | 41.95783 | 8.42604 | 7739 ft | 224 kts | 182° |
| 2026-05-08 12:08 | 41.94222 | 8.42484 | 7618 ft | 231 kts | 182° |
| 2026-05-08 12:08 | 41.92528 | 8.42354 | 7496 ft | 251 kts | 182° |
| 2026-05-08 12:08 | 41.90767 | 8.42219 | 7372 ft | 255 kts | 182° |
| 2026-05-08 12:08 | 41.88995 | 8.42083 | 7249 ft | 255 kts | 182° |
| 2026-05-08 12:09 | 41.87227 | 8.41950 | 7129 ft | 254 kts | 182° |
| 2026-05-08 12:09 | 41.85461 | 8.41819 | 7007 ft | 254 kts | 182° |
| 2026-05-08 12:09 | 41.83703 | 8.41689 | 6884 ft | 253 kts | 182° |
| 2026-05-08 12:09 | 41.81942 | 8.41556 | 6763 ft | 253 kts | 182° |
| 2026-05-08 12:10 | 41.80187 | 8.41424 | 6642 ft | 252 kts | 182° |
| 2026-05-08 12:10 | 41.78429 | 8.41293 | 6521 ft | 252 kts | 182° |
| 2026-05-08 12:10 | 41.76676 | 8.41165 | 6399 ft | 252 kts | 182° |
| 2026-05-08 12:10 | 41.74924 | 8.41036 | 6272 ft | 252 kts | 183° |
| 2026-05-08 12:11 | 41.73170 | 8.40907 | 6146 ft | 252 kts | 182° |
| 2026-05-08 12:11 | 41.71422 | 8.40776 | 6016 ft | 251 kts | 183° |
| 2026-05-08 12:11 | 41.69674 | 8.40645 | 5890 ft | 252 kts | 183° |
| 2026-05-08 12:11 | 41.67929 | 8.40679 | 5763 ft | 251 kts | 170° |
| 2026-05-08 12:12 | 41.66273 | 8.41368 | 5636 ft | 250 kts | 152° |
| 2026-05-08 12:12 | 41.64866 | 8.42661 | 5512 ft | 249 kts | 135° |
| 2026-05-08 12:12 | 41.63780 | 8.44488 | 5382 ft | 248 kts | 119° |
| 2026-05-08 12:12 | 41.63135 | 8.46622 | 5263 ft | 248 kts | 102° |
| 2026-05-08 12:13 | 41.62995 | 8.48875 | 5139 ft | 247 kts | 84° |
| 2026-05-08 12:13 | 41.63378 | 8.51101 | 5006 ft | 246 kts | 66° |
| 2026-05-08 12:13 | 41.64236 | 8.53069 | 4883 ft | 246 kts | 53° |
| 2026-05-08 12:13 | 41.65228 | 8.54948 | 4606 ft | 245 kts | 54° |
| 2026-05-08 12:14 | 41.66179 | 8.56763 | 4550 ft | 232 kts | 54° |
| 2026-05-08 12:14 | 41.67077 | 8.58486 | 4491 ft | 219 kts | 54° |
| 2026-05-08 12:14 | 41.67933 | 8.60128 | 4432 ft | 213 kts | 54° |
| 2026-05-08 12:14 | 41.68782 | 8.61752 | 4352 ft | 213 kts | 54° |
| 2026-05-08 12:15 | 41.69630 | 8.63374 | 4259 ft | 212 kts | 54° |
| 2026-05-08 12:15 | 41.70475 | 8.64987 | 4150 ft | 212 kts | 54° |
| 2026-05-08 12:15 | 41.71320 | 8.66603 | 4057 ft | 211 kts | 54° |
| 2026-05-08 12:15 | 41.72349 | 8.67971 | 3893 ft | 210 kts | 23° |
| 2026-05-08 12:16 | 41.73728 | 8.68590 | 3766 ft | 211 kts | 20° |
| 2026-05-08 12:16 | 41.75058 | 8.69430 | 3464 ft | 212 kts | 27° |
| 2026-05-08 12:16 | 41.76379 | 8.70296 | 3184 ft | 212 kts | 24° |
| 2026-05-08 12:16 | 41.77719 | 8.71110 | 2930 ft | 211 kts | 24° |
| 2026-05-08 12:17 | 41.79050 | 8.71948 | 2650 ft | 212 kts | 25° |
| 2026-05-08 12:17 | 41.80400 | 8.72790 | 2322 ft | 213 kts | 25° |
| 2026-05-08 12:17 | 41.81734 | 8.73617 | 2017 ft | 207 kts | 24° |
| 2026-05-08 12:17 | 41.83020 | 8.74411 | 1776 ft | 202 kts | 24° |
| 2026-05-08 12:18 | 41.84278 | 8.75189 | 1465 ft | 195 kts | 24° |
| 2026-05-08 12:18 | 41.85488 | 8.75951 | 1220 ft | 189 kts | 24° |
| 2026-05-08 12:18 | 41.86648 | 8.76679 | 986 ft | 182 kts | 24° |
| 2026-05-08 12:18 | 41.87759 | 8.77380 | 809 ft | 172 kts | 23° |
| 2026-05-08 12:19 | 41.88799 | 8.78023 | 618 ft | 155 kts | 22° |
| 2026-05-08 12:19 | 41.89746 | 8.78607 | 349 ft | 144 kts | 22° |
| 2026-05-08 12:19 | 41.90628 | 8.79154 | 215 ft | 139 kts | 22° |
| 2026-05-08 12:19 | 41.91528 | 8.79710 | 55 ft | 144 kts | 21° |
| 2026-05-08 12:20 | 41.92369 | 8.80229 | 23 ft | 109 kts | 25° |
| 2026-05-08 12:20 | 41.92775 | 8.80489 | 24 ft | 25 kts | 35° |
| 2026-05-08 12:20 | 41.92892 | 8.80568 | 28 ft | 14 kts | 21° |
| 2026-05-08 12:20 | 41.92954 | 8.80506 | 25 ft | 9 kts | 289° |
| 2026-05-08 12:21 | 41.92965 | 8.80418 | 22 ft | 11 kts | 250° |
| 2026-05-08 12:21 | 41.92915 | 8.80342 | 21 ft | 11 kts | 225° |
| 2026-05-08 12:21 | 41.92857 | 8.80263 | 21 ft | 12 kts | 225° |
| 2026-05-08 12:21 | 41.92793 | 8.80179 | 21 ft | 13 kts | 224° |
| 2026-05-08 12:22 | 41.92713 | 8.80113 | 21 ft | 14 kts | 207° |
| 2026-05-08 12:22 | 41.92623 | 8.80059 | 23 ft | 14 kts | 203° |
| 2026-05-08 12:22 | 41.92530 | 8.80000 | 22 ft | 15 kts | 208° |
| 2026-05-08 12:22 | 41.92433 | 8.79939 | 23 ft | 15 kts | 205° |
| 2026-05-08 12:23 | 41.92333 | 8.79876 | 23 ft | 16 kts | 205° |
| 2026-05-08 12:23 | 41.92227 | 8.79811 | 23 ft | 17 kts | 205° |
| 2026-05-08 12:23 | 41.92117 | 8.79741 | 24 ft | 18 kts | 205° |
| 2026-05-08 12:23 | 41.92004 | 8.79670 | 21 ft | 18 kts | 204° |
| 2026-05-08 12:24 | 41.91898 | 8.79606 | 23 ft | 10 kts | 205° |
| 2026-05-08 12:24 | 41.91882 | 8.79596 | 21 ft | 0 kts | 205° |
| 2026-05-08 12:25 | 41.91893 | 8.79602 | 21 ft | 3 kts | 205° |
| 2026-05-08 12:25 | 41.91925 | 8.79622 | 21 ft | 6 kts | 205° |
| 2026-05-08 12:25 | 41.91934 | 8.79628 | 21 ft | 0 kts | 205° |
| 2026-05-08 12:28 | 41.91934 | 8.79627 | 21 ft | 1 kts | 205° |
| 2026-05-08 12:28 | 41.91887 | 8.79599 | 21 ft | 13 kts | 204° |
| 2026-05-08 12:29 | 41.91873 | 8.79557 | 21 ft | 6 kts | 303° |
| 2026-05-08 12:29 | 41.91904 | 8.79539 | 21 ft | 3 kts | 351° |
| 2026-05-08 12:29 | 41.91914 | 8.79536 | 21 ft | 0 kts | 347° |
| 2026-05-08 12:31 | 47.46782 | 8.54139 | 1462 ft | 38 kts | 154° |
| 2026-05-08 12:31 | 47.46335 | 8.54447 | 1385 ft | 103 kts | 155° |